Time;durP1;ratioP1;P1;durP2;ratioP2;P2;SDS_P1;SDS_P2;PMS_P1;PMS_P2;Temp;Humidity;BMP_temperature;BMP_pressure;BME280_temperature;BME280_humidity;BME280_pressure;Samples;Min_cycle;Max_cycle;Signal;HPM_P1;HPM_P2
2023/02/05 00:02:00;;;;;;;17.10;10.52;;;2.80;99.90;;;;;;6225256;28;20041;-79
2023/02/05 00:05:01;;;;;;;25.80;9.82;;;2.80;99.90;;;;;;6225160;28;20048;-79
2023/02/05 00:08:03;;;;;;;17.35;9.40;;;2.90;99.90;;;;;;6225379;28;20417;-78
2023/02/05 00:11:08;;;;;;;19.10;9.93;;;2.90;99.90;;;;;;6224931;28;20075;-79
2023/02/05 00:14:11;;;;;;;16.35;8.80;;;2.90;99.90;;;;;;6224425;28;20049;-79
2023/02/05 00:17:13;;;;;;;14.00;7.40;;;2.90;99.90;;;;;;6222828;28;20048;-77
2023/02/05 00:20:14;;;;;;;15.02;8.57;;;2.90;99.90;;;;;;6221043;28;20046;-78
2023/02/05 00:23:16;;;;;;;14.43;8.68;;;2.90;99.90;;;;;;6217873;28;20049;-78
2023/02/05 00:26:18;;;;;;;24.45;9.40;;;2.90;99.90;;;;;;6222870;28;20049;-78
2023/02/05 00:29:21;;;;;;;10.98;7.85;;;3.00;99.90;;;;;;6223085;28;20445;-79
2023/02/05 00:32:23;;;;;;;14.32;8.48;;;3.00;99.90;;;;;;6223754;28;20045;-79
2023/02/05 00:35:24;;;;;;;15.70;7.30;;;3.00;99.90;;;;;;6224418;28;20601;-79
2023/02/05 00:38:26;;;;;;;20.20;9.75;;;3.00;99.90;;;;;;6223992;28;20045;-78
2023/02/05 00:41:28;;;;;;;24.23;9.18;;;3.00;99.90;;;;;;6223996;28;20049;-79
2023/02/05 00:44:31;;;;;;;21.00;9.30;;;3.00;99.90;;;;;;6222413;28;20050;-77
2023/02/05 00:47:32;;;;;;;14.50;8.73;;;2.90;99.90;;;;;;6222187;28;20050;-78
2023/02/05 00:50:35;;;;;;;19.63;10.50;;;2.90;99.90;;;;;;6223281;28;20046;-78
2023/02/05 00:53:36;;;;;;;22.13;10.60;;;2.90;99.90;;;;;;6227267;28;20054;-78
2023/02/05 00:56:38;;;;;;;19.05;10.10;;;3.00;99.90;;;;;;6225110;28;20052;-78
2023/02/05 00:59:41;;;;;;;16.65;9.43;;;3.00;99.90;;;;;;6222047;28;20049;-78
2023/02/05 01:02:43;;;;;;;15.65;8.80;;;3.00;99.90;;;;;;6219598;28;20046;-78
2023/02/05 01:05:45;;;;;;;16.42;8.55;;;3.00;99.90;;;;;;6222201;28;20042;-78
2023/02/05 01:08:47;;;;;;;18.95;9.10;;;3.10;99.90;;;;;;6222365;28;20073;-78
2023/02/05 01:11:49;;;;;;;14.10;9.20;;;3.10;99.90;;;;;;6222554;28;20057;-78
2023/02/05 01:14:53;;;;;;;18.10;9.27;;;3.10;99.90;;;;;;6222116;28;20045;-78
2023/02/05 01:17:54;;;;;;;14.35;9.95;;;3.20;99.90;;;;;;6222509;28;20153;-78
2023/02/05 01:20:56;;;;;;;20.75;10.88;;;3.20;99.90;;;;;;6221493;28;20069;-78
2023/02/05 01:24:00;;;;;;;16.88;12.05;;;3.20;99.90;;;;;;6223179;28;20046;-78
2023/02/05 01:27:02;;;;;;;12.90;8.57;;;3.20;99.90;;;;;;6222895;28;20125;-78
2023/02/05 01:30:06;;;;;;;14.32;7.72;;;3.20;99.90;;;;;;6222291;28;20050;-78
2023/02/05 01:33:08;;;;;;;26.02;11.50;;;3.20;99.90;;;;;;6222177;28;20101;-78
2023/02/05 01:36:10;;;;;;;16.58;11.13;;;3.10;99.90;;;;;;6223032;28;20050;-78
2023/02/05 01:39:12;;;;;;;21.83;10.40;;;3.00;99.90;;;;;;6222232;28;20061;-78
2023/02/05 01:42:18;;;;;;;15.40;10.05;;;3.00;99.90;;;;;;6223175;28;20056;-78
2023/02/05 01:45:57;;;;;;;17.50;9.45;;;2.90;99.90;;;;;;6223181;28;20049;-78
2023/02/05 01:49:00;;;;;;;20.95;10.57;;;2.80;99.90;;;;;;6222383;28;20421;-78
2023/02/05 01:52:06;;;;;;;15.18;10.02;;;2.80;99.90;;;;;;6222557;28;20429;-78
2023/02/05 01:55:09;;;;;;;21.38;9.40;;;2.80;99.90;;;;;;6222249;28;20161;-79
2023/02/05 01:58:11;;;;;;;16.65;10.63;;;2.80;99.90;;;;;;6223020;28;20046;-78
2023/02/05 02:01:14;;;;;;;23.85;11.70;;;2.80;99.90;;;;;;6223173;28;20049;-78
2023/02/05 02:04:29;;;;;;;23.20;10.75;;;2.80;99.90;;;;;;6226815;28;20050;-78
2023/02/05 02:07:31;;;;;;;16.95;11.95;;;2.90;99.90;;;;;;6226739;28;20050;-79
2023/02/05 02:10:34;;;;;;;20.60;10.30;;;2.90;99.90;;;;;;6226063;28;20061;-78
2023/02/05 02:13:37;;;;;;;15.43;10.45;;;2.80;99.90;;;;;;6226889;28;20048;-79
2023/02/05 02:16:41;;;;;;;19.25;9.70;;;2.80;99.90;;;;;;6226008;28;20516;-79
2023/02/05 02:19:48;;;;;;;23.75;11.20;;;2.70;99.90;;;;;;6226587;28;20061;-78
2023/02/05 02:23:06;;;;;;;21.38;12.13;;;2.70;99.90;;;;;;6225620;28;20509;-78
2023/02/05 02:26:21;;;;;;;;;;;2.60;99.90;;;;;;6226920;28;20116;-78
2023/02/05 02:29:35;;;;;;;26.30;12.95;;;2.60;99.90;;;;;;6225918;28;19921;-79
2023/02/05 02:32:40;;;;;;;23.77;12.10;;;2.70;99.90;;;;;;6225212;28;20065;-78
2023/02/05 02:35:47;;;;;;;22.85;12.43;;;2.70;99.90;;;;;;6225951;28;20058;-78
2023/02/05 02:38:54;;;;;;;23.77;12.43;;;2.70;99.90;;;;;;6225286;28;20046;-78
2023/02/05 02:42:01;;;;;;;17.15;12.95;;;2.80;99.90;;;;;;6225053;28;20056;-79
2023/02/05 02:45:08;;;;;;;17.50;12.15;;;2.80;99.90;;;;;;6226373;28;20049;-79
2023/02/05 02:48:11;;;;;;;30.33;14.70;;;2.90;99.90;;;;;;6226306;28;20517;-78
2023/02/05 02:51:16;;;;;;;16.50;10.70;;;2.90;99.90;;;;;;6226393;28;20425;-78
2023/02/05 02:54:20;;;;;;;22.88;11.98;;;2.90;99.90;;;;;;6226910;28;20088;-78
2023/02/05 02:57:26;;;;;;;22.55;12.52;;;3.00;99.90;;;;;;6226639;28;20046;-79
2023/02/05 03:00:30;;;;;;;24.58;12.90;;;3.00;99.90;;;;;;6226297;28;20730;-78
2023/02/05 03:03:35;;;;;;;30.85;12.45;;;3.10;99.90;;;;;;6225844;28;20081;-79
2023/02/05 03:06:39;;;;;;;18.88;11.80;;;3.10;99.90;;;;;;6224499;28;20061;-78
2023/02/05 03:09:49;;;;;;;31.52;15.00;;;3.20;99.90;;;;;;6225248;28;20425;-78
2023/02/05 03:12:51;;;;;;;21.15;12.35;;;3.20;99.90;;;;;;6225928;28;20049;-79
2023/02/05 03:15:54;;;;;;;18.98;11.68;;;3.30;99.90;;;;;;6226379;28;20050;-78
2023/02/05 03:18:56;;;;;;;18.98;11.13;;;3.30;99.90;;;;;;6225852;28;20050;-79
2023/02/05 03:22:02;;;;;;;15.98;10.30;;;3.40;99.90;;;;;;6225084;28;20130;-78
2023/02/05 03:25:04;;;;;;;24.70;12.98;;;3.30;99.90;;;;;;6224839;28;20072;-78
2023/02/05 03:28:06;;;;;;;15.32;10.82;;;3.30;99.90;;;;;;6226256;28;20045;-78
2023/02/05 03:31:16;;;;;;;20.40;12.75;;;3.30;99.90;;;;;;6224759;28;20049;-78
2023/02/05 03:34:31;;;;;;;21.13;12.52;;;3.30;99.90;;;;;;6225479;28;20054;-78
2023/02/05 03:37:41;;;;;;;21.55;12.27;;;3.40;99.90;;;;;;6225537;28;20061;-78
2023/02/05 03:40:48;;;;;;;24.98;12.02;;;3.40;99.90;;;;;;6224824;28;20417;-78
2023/02/05 03:43:58;;;;;;;15.07;10.98;;;3.40;99.90;;;;;;6226409;28;20135;-78
2023/02/05 03:47:09;;;;;;;12.95;9.45;;;3.50;99.90;;;;;;6225204;28;20041;-79
2023/02/05 03:50:18;;;;;;;23.05;11.85;;;3.40;99.90;;;;;;6225043;28;20417;-79
2023/02/05 03:53:25;;;;;;;19.17;11.73;;;3.40;99.90;;;;;;6224874;28;20046;-78
2023/02/05 03:56:32;;;;;;;27.48;16.25;;;3.30;99.90;;;;;;6229033;28;20056;-79
2023/02/05 03:59:35;;;;;;;16.08;11.00;;;3.20;99.90;;;;;;6230753;28;20046;-78
2023/02/05 04:02:38;;;;;;;20.05;10.95;;;3.30;99.90;;;;;;6230338;28;20509;-79
2023/02/05 04:05:40;;;;;;;18.23;11.57;;;3.40;99.90;;;;;;6231512;28;20046;-78
2023/02/05 04:08:42;;;;;;;17.85;11.23;;;3.40;99.90;;;;;;6231178;28;20042;-79
2023/02/05 04:11:44;;;;;;;26.20;12.45;;;3.30;99.90;;;;;;6230741;28;20053;-79
2023/02/05 04:14:46;;;;;;;15.75;9.77;;;3.30;99.90;;;;;;6231138;28;20065;-79
2023/02/05 04:17:49;;;;;;;19.65;9.80;;;3.30;99.90;;;;;;6231192;28;20061;-80
2023/02/05 04:20:51;;;;;;;15.25;11.60;;;3.20;99.90;;;;;;6229928;28;20049;-79
2023/02/05 04:23:52;;;;;;;24.80;10.32;;;3.30;99.90;;;;;;6232159;28;20383;-79
2023/02/05 04:26:55;;;;;;;17.80;10.65;;;3.30;99.90;;;;;;6232422;28;20050;-79
2023/02/05 04:29:57;;;;;;;16.60;10.45;;;3.40;99.90;;;;;;6230107;28;20050;-79
2023/02/05 04:33:00;;;;;;;21.88;11.60;;;3.40;99.90;;;;;;6230694;28;20046;-79
2023/02/05 04:36:02;;;;;;;17.30;11.70;;;3.50;99.90;;;;;;6230694;28;20077;-80
2023/02/05 04:39:04;;;;;;;23.55;11.45;;;3.50;99.90;;;;;;6231001;28;20057;-80
2023/02/05 04:42:05;;;;;;;28.08;13.25;;;3.60;99.90;;;;;;6230927;28;20054;-79
2023/02/05 04:45:08;;;;;;;22.40;11.43;;;3.60;99.90;;;;;;6230485;28;20042;-79
2023/02/05 04:48:11;;;;;;;14.80;10.25;;;3.70;99.90;;;;;;6231079;28;20050;-80
2023/02/05 04:51:16;;;;;;;18.83;10.85;;;3.70;99.90;;;;;;6231072;28;20536;-79
2023/02/05 04:54:17;;;;;;;21.98;11.07;;;3.70;99.90;;;;;;6231059;28;20056;-79
2023/02/05 04:57:19;;;;;;;19.25;10.27;;;3.70;99.90;;;;;;6230069;28;20061;-79
2023/02/05 05:00:21;;;;;;;22.08;11.63;;;3.70;99.90;;;;;;6231188;28;20046;-79
2023/02/05 05:03:24;;;;;;;21.60;11.63;;;3.70;99.90;;;;;;6228231;28;20056;-80
2023/02/05 05:06:26;;;;;;;18.05;12.45;;;3.70;99.90;;;;;;6226110;28;20054;-79
2023/02/05 05:09:27;;;;;;;25.90;11.02;;;3.70;99.90;;;;;;6225787;28;20041;-79
2023/02/05 05:12:29;;;;;;;19.20;10.27;;;3.70;99.90;;;;;;6224714;28;20538;-79
2023/02/05 05:15:31;;;;;;;22.17;11.02;;;3.70;99.90;;;;;;6226590;28;20389;-80
2023/02/05 05:18:34;;;;;;;19.75;11.30;;;3.80;99.90;;;;;;6225661;28;20520;-79
2023/02/05 05:21:36;;;;;;;23.92;12.10;;;3.90;99.90;;;;;;6225577;28;20497;-80
2023/02/05 05:24:38;;;;;;;12.35;10.45;;;3.90;99.90;;;;;;6225570;28;20494;-79
2023/02/05 05:27:39;;;;;;;17.15;11.32;;;3.90;99.90;;;;;;6225012;28;20049;-79
2023/02/05 05:30:43;;;;;;;26.48;12.43;;;4.00;99.90;;;;;;6224742;28;20057;-79
2023/02/05 05:33:47;;;;;;;27.92;12.93;;;4.00;99.90;;;;;;6227325;28;20517;-79
2023/02/05 05:36:49;;;;;;;30.25;13.48;;;4.00;99.90;;;;;;6230952;28;20049;-80
2023/02/05 05:46:31;;;;;;;23.70;13.35;;;4.10;99.90;;;;;;6228296;28;20053;-79
2023/02/05 05:49:34;;;;;;;24.88;14.00;;;4.10;99.90;;;;;;6229714;28;20049;-79
2023/02/05 05:52:36;;;;;;;18.13;12.05;;;4.10;99.90;;;;;;6234472;28;20052;-79
2023/02/05 05:55:37;;;;;;;24.48;14.52;;;4.10;99.90;;;;;;6230986;28;20062;-79
2023/02/05 05:58:40;;;;;;;20.55;13.85;;;4.10;99.90;;;;;;6228483;28;20078;-78
2023/02/05 06:01:41;;;;;;;29.05;14.48;;;4.20;99.90;;;;;;6228243;28;20042;-80
2023/02/05 06:04:44;;;;;;;27.00;14.93;;;4.20;99.90;;;;;;6230194;28;20053;-80
2023/02/05 06:07:46;;;;;;;31.27;14.07;;;4.20;99.90;;;;;;6230549;28;20050;-79
2023/02/05 06:10:48;;;;;;;29.05;14.27;;;4.20;99.90;;;;;;6228813;28;20053;-79
2023/02/05 06:13:49;;;;;;;36.63;16.63;;;4.20;99.90;;;;;;6229302;28;20038;-79
2023/02/05 06:16:54;;;;;;;28.90;15.88;;;4.20;99.90;;;;;;6227642;28;20061;-80
2023/02/05 06:19:57;;;;;;;24.80;15.18;;;4.20;99.90;;;;;;6229109;28;20057;-80
2023/02/05 06:22:58;;;;;;;25.50;14.73;;;4.30;99.90;;;;;;6231092;28;20046;-80
2023/02/05 06:26:00;;;;;;;29.48;15.10;;;4.30;99.90;;;;;;6231080;28;20060;-80
2023/02/05 06:29:02;;;;;;;26.75;14.70;;;4.30;99.90;;;;;;6230683;28;20052;-80
2023/02/05 06:32:04;;;;;;;30.13;14.50;;;4.40;99.90;;;;;;6229857;28;20053;-81
2023/02/05 06:35:19;;;;;;;36.67;16.63;;;4.40;99.90;;;;;;6231194;28;20042;-81
2023/02/05 06:38:21;;;;;;;27.73;15.68;;;4.40;99.90;;;;;;6231486;28;20050;-81
2023/02/05 06:41:22;;;;;;;27.42;15.35;;;4.40;99.90;;;;;;6231274;28;20042;-81
2023/02/05 06:44:24;;;;;;;23.98;14.95;;;4.40;99.90;;;;;;6230639;28;20053;-81
2023/02/05 06:47:26;;;;;;;24.83;15.02;;;4.30;99.90;;;;;;6231528;28;20046;-81
2023/02/05 06:50:29;;;;;;;26.58;16.00;;;4.30;99.90;;;;;;6230940;28;20049;-80
2023/02/05 06:53:31;;;;;;;26.27;16.48;;;4.30;99.90;;;;;;6231135;28;20429;-80
2023/02/05 06:56:33;;;;;;;27.92;15.45;;;4.30;99.90;;;;;;6230292;28;20154;-81
2023/02/05 06:59:34;;;;;;;30.08;20.70;;;4.20;99.90;;;;;;6231489;28;20060;-81
2023/02/05 07:02:36;;;;;;;31.83;17.20;;;4.20;99.90;;;;;;6231467;28;20497;-81
2023/02/05 07:05:39;;;;;;;28.65;17.23;;;4.30;99.90;;;;;;6231437;28;20045;-81
2023/02/05 07:08:41;;;;;;;26.95;16.70;;;4.30;99.90;;;;;;6229224;28;20057;-80
2023/02/05 07:11:43;;;;;;;28.00;15.77;;;4.30;99.90;;;;;;6230907;28;20101;-81
2023/02/05 07:14:45;;;;;;;32.08;23.30;;;4.30;99.90;;;;;;6230003;28;20045;-81
2023/02/05 07:17:47;;;;;;;28.38;15.77;;;4.20;99.90;;;;;;6230453;28;20050;-81
2023/02/05 07:20:50;;;;;;;23.75;15.18;;;4.20;99.90;;;;;;6231209;28;20502;-81
2023/02/05 07:23:52;;;;;;;28.23;14.77;;;4.20;99.90;;;;;;6230931;28;20444;-81
2023/02/05 07:26:54;;;;;;;22.88;14.05;;;4.20;99.90;;;;;;6231716;28;20406;-80
2023/02/05 07:29:55;;;;;;;21.55;12.68;;;4.20;99.90;;;;;;6230402;28;20041;-81
2023/02/05 07:32:59;;;;;;;28.48;13.20;;;4.10;99.90;;;;;;6230426;28;20669;-81
2023/02/05 07:36:04;;;;;;;24.23;14.45;;;4.10;99.90;;;;;;6229260;28;20049;-80
2023/02/05 07:39:05;;;;;;;23.25;13.50;;;4.10;99.90;;;;;;6227674;28;20054;-81
2023/02/05 07:42:07;;;;;;;29.13;16.27;;;4.10;99.90;;;;;;6226890;28;20049;-80
2023/02/05 07:45:09;;;;;;;26.42;14.05;;;4.10;99.90;;;;;;6230307;28;20050;-81
2023/02/05 07:48:11;;;;;;;29.25;15.60;;;4.10;99.90;;;;;;6230881;28;20058;-81
2023/02/05 07:51:17;;;;;;;31.63;14.05;;;4.10;99.90;;;;;;6229978;28;20516;-81
2023/02/05 07:54:19;;;;;;;22.95;13.98;;;4.10;99.90;;;;;;6230484;28;20042;-81
2023/02/05 07:57:21;;;;;;;34.50;16.58;;;4.10;99.90;;;;;;6227612;28;20054;-80
2023/02/05 08:00:23;;;;;;;35.95;16.23;;;4.10;99.90;;;;;;6229916;28;20050;-80
2023/02/05 08:03:25;;;;;;;26.08;13.30;;;4.20;99.90;;;;;;6233206;28;20050;-81
2023/02/05 08:06:28;;;;;;;23.67;13.73;;;4.20;99.90;;;;;;6223910;28;20050;-78
2023/02/05 08:09:30;;;;;;;26.65;13.18;;;4.20;99.90;;;;;;6223396;28;20042;-78
2023/02/05 08:12:31;;;;;;;24.98;12.48;;;4.30;99.90;;;;;;6222682;28;20053;-81
2023/02/05 08:15:33;;;;;;;24.08;11.45;;;4.30;99.90;;;;;;6225022;28;20049;-78
2023/02/05 08:18:35;;;;;;;31.50;13.73;;;4.50;99.90;;;;;;6227080;28;20046;-80
2023/02/05 08:21:38;;;;;;;52.90;21.40;;;4.40;99.90;;;;;;6227080;28;20675;-80
2023/02/05 08:24:39;;;;;;;20.33;13.75;;;4.40;99.90;;;;;;6226968;28;20506;-80
2023/02/05 08:27:44;;;;;;;99.60;42.08;;;4.40;99.90;;;;;;6228020;28;20060;-80
2023/02/05 08:30:46;;;;;;;77.97;36.70;;;4.40;99.90;;;;;;6226985;28;20046;-78
2023/02/05 08:33:49;;;;;;;62.35;27.42;;;4.40;99.90;;;;;;6222639;28;20524;-78
2023/02/05 08:36:52;;;;;;;34.67;14.75;;;4.40;99.90;;;;;;6222153;28;20096;-78
2023/02/05 08:39:54;;;;;;;22.15;11.38;;;4.40;99.90;;;;;;6222644;28;20460;-79
2023/02/05 08:42:56;;;;;;;25.33;12.13;;;4.50;99.90;;;;;;6222331;28;20073;-80
2023/02/05 08:45:58;;;;;;;27.00;12.13;;;4.50;99.90;;;;;;6222229;28;20421;-79
2023/02/05 08:49:00;;;;;;;29.50;16.30;;;4.60;99.90;;;;;;6222667;28;20045;-78
2023/02/05 08:52:03;;;;;;;196.30;125.80;;;4.60;99.90;;;;;;6165210;28;20046;-79
2023/02/05 08:55:06;;;;;;;116.38;87.68;;;4.70;99.90;;;;;;6206281;28;20049;-79
2023/02/05 09:01:29;;;;;;;16.70;11.93;;;4.80;99.90;;;;;;6219431;28;20062;-78
2023/02/05 09:04:31;;;;;;;15.93;10.07;;;4.80;99.90;;;;;;6226068;28;20054;-79
2023/02/05 09:07:34;;;;;;;55.50;23.13;;;4.80;99.90;;;;;;6225525;28;20505;-79
2023/02/05 09:10:36;;;;;;;20.08;10.07;;;4.80;99.90;;;;;;6223616;28;20046;-79
2023/02/05 09:13:38;;;;;;;43.67;24.05;;;4.80;99.90;;;;;;6223820;28;20057;-78
2023/02/05 09:16:40;;;;;;;23.50;15.13;;;4.90;99.90;;;;;;6223888;28;20486;-79
2023/02/05 09:19:42;;;;;;;24.48;11.20;;;4.90;99.90;;;;;;6224545;28;20465;-79
2023/02/05 09:22:49;;;;;;;18.95;12.55;;;4.90;99.90;;;;;;6224875;28;20049;-78
2023/02/05 09:25:51;;;;;;;27.33;12.45;;;5.00;99.90;;;;;;6226783;28;20054;-80
2023/02/05 09:28:53;;;;;;;37.70;21.70;;;5.00;99.90;;;;;;6225981;28;20033;-79
2023/02/05 09:31:54;;;;;;;21.38;13.68;;;5.10;99.90;;;;;;6225860;28;20046;-79
2023/02/05 09:34:56;;;;;;;26.45;12.30;;;5.10;99.90;;;;;;6228381;28;20046;-78
2023/02/05 09:38:01;;;;;;;26.00;16.20;;;5.10;99.90;;;;;;6227807;28;20125;-79
2023/02/05 09:41:08;;;;;;;22.10;11.45;;;5.20;99.90;;;;;;6226560;28;20046;-79
2023/02/05 09:44:16;;;;;;;19.52;11.35;;;5.20;99.90;;;;;;6228017;28;20058;-79
2023/02/05 09:47:24;;;;;;;20.50;9.68;;;5.20;99.90;;;;;;6228046;28;20049;-78
2023/02/05 09:50:28;;;;;;;17.13;11.18;;;5.20;99.90;;;;;;6224203;28;20038;-80
2023/02/05 09:53:36;;;;;;;15.15;9.40;;;5.20;99.90;;;;;;6245520;28;20053;-79
2023/02/05 09:56:38;;;;;;;;;;;5.30;99.90;;;;;;6218712;28;20133;-79
2023/02/05 09:59:43;;;;;;;17.25;9.35;;;5.30;99.90;;;;;;6226744;28;19921;-81
2023/02/05 10:02:50;;;;;;;20.35;8.80;;;5.30;99.90;;;;;;6222878;28;20042;-78
2023/02/05 10:06:23;;;;;;;27.50;12.57;;;5.30;99.90;;;;;;6225402;28;20056;-79
2023/02/05 10:09:42;;;;;;;18.65;9.70;;;5.30;99.90;;;;;;6224434;28;20050;-78
2023/02/05 10:13:14;;;;;;;14.27;9.13;;;5.40;99.90;;;;;;6226165;28;20057;-80
2023/02/05 10:16:32;;;;;;;17.48;11.02;;;5.40;99.90;;;;;;6227087;28;20046;-79
2023/02/05 10:19:56;;;;;;;17.00;8.02;;;5.40;99.90;;;;;;6226139;28;20054;-79
2023/02/05 10:23:26;;;;;;;15.35;8.60;;;5.50;99.90;;;;;;6230416;28;20049;-80
2023/02/05 10:26:34;;;;;;;19.27;9.75;;;5.40;99.90;;;;;;6229268;28;20101;-79
2023/02/05 10:29:46;;;;;;;13.18;8.82;;;5.40;99.90;;;;;;6230414;28;20049;-80
2023/02/05 10:33:13;;;;;;;26.77;11.15;;;5.40;99.90;;;;;;6229577;28;20038;-79
2023/02/05 10:36:17;;;;;;;13.15;8.30;;;5.40;99.90;;;;;;6230469;28;20089;-78
2023/02/05 10:39:28;;;;;;;18.08;7.80;;;5.40;99.90;;;;;;6230901;28;20038;-79
2023/02/05 10:42:40;;;;;;;25.60;10.70;;;5.40;99.90;;;;;;6230225;28;20046;-79
2023/02/05 10:45:42;;;;;;;15.23;6.15;;;5.40;99.90;;;;;;6230183;28;20126;-80
2023/02/05 10:48:49;;;;;;;15.00;8.35;;;5.40;99.90;;;;;;6230791;28;20049;-77
2023/02/05 10:51:52;;;;;;;21.40;7.78;;;5.30;99.90;;;;;;6245845;28;20049;-79
2023/02/05 10:55:18;;;;;;;15.70;9.75;;;5.30;99.90;;;;;;6239122;28;20061;-80
2023/02/05 10:59:01;;;;;;;23.05;8.35;;;5.30;99.90;;;;;;6230232;28;20073;-80
2023/02/05 11:02:16;;;;;;;18.30;9.38;;;5.30;99.90;;;;;;6229873;28;20057;-79
2023/02/05 11:05:45;;;;;;;19.83;10.30;;;5.20;99.90;;;;;;6230340;28;20065;-79
2023/02/05 11:09:09;;;;;;;28.80;11.93;;;5.20;99.90;;;;;;6224961;28;20092;-79
2023/02/05 11:12:20;;;;;;;18.58;10.18;;;5.20;99.90;;;;;;6239072;28;20053;-79
2023/02/05 11:15:26;;;;;;;17.55;10.38;;;5.20;99.90;;;;;;6218878;28;20498;-79
2023/02/05 11:18:30;;;;;;;22.00;12.20;;;5.20;99.90;;;;;;6232342;28;20050;-81
2023/02/05 11:21:49;;;;;;;29.45;15.02;;;5.20;99.90;;;;;;6230528;28;20049;-80
2023/02/05 11:25:04;;;;;;;23.40;12.30;;;5.30;99.90;;;;;;6226465;28;20092;-81
2023/02/05 11:28:06;;;;;;;26.38;16.13;;;5.40;99.90;;;;;;6232518;28;20118;-79
2023/02/05 11:31:25;;;;;;;35.00;20.15;;;5.40;99.90;;;;;;6228176;28;20049;-79
2023/02/05 11:34:37;;;;;;;31.13;17.55;;;5.50;99.90;;;;;;6228570;28;20547;-79
2023/02/05 11:41:47;;;;;;;25.92;14.93;;;5.50;99.90;;;;;;6219773;28;20041;-79
2023/02/05 11:45:05;;;;;;;22.50;12.32;;;5.60;99.90;;;;;;6236562;28;20069;-80
2023/02/05 11:48:29;;;;;;;26.00;11.20;;;5.60;99.90;;;;;;6230205;28;20056;-79
2023/02/05 11:52:04;;;;;;;17.80;10.43;;;5.50;99.90;;;;;;6230013;28;20064;-79
2023/02/05 11:55:08;;;;;;;23.13;11.25;;;5.50;99.90;;;;;;6237260;28;20045;-80
2023/02/05 11:58:21;;;;;;;20.27;11.27;;;5.50;99.90;;;;;;6233582;28;20061;-80
2023/02/05 12:01:46;;;;;;;15.55;10.95;;;5.50;99.90;;;;;;6229472;28;20060;-79
2023/02/05 12:05:06;;;;;;;21.95;12.38;;;5.50;99.90;;;;;;6221112;28;20060;-79
2023/02/05 12:08:31;;;;;;;24.52;18.92;;;5.40;99.90;;;;;;6240970;28;20409;-80
2023/02/05 12:12:05;;;;;;;179.55;91.53;;;5.40;99.90;;;;;;6233362;28;20149;-78
2023/02/05 12:15:18;;;;;;;30.10;16.27;;;5.50;99.90;;;;;;6229607;28;20056;-79
2023/02/05 12:18:31;;;;;;;29.75;13.30;;;5.60;99.90;;;;;;6232005;28;20365;-80
2023/02/05 12:21:45;;;;;;;23.65;14.63;;;5.50;99.90;;;;;;6232896;28;20416;-79
2023/02/05 12:24:54;;;;;;;28.80;14.18;;;5.50;99.90;;;;;;6228375;28;20038;-79
2023/02/05 12:28:08;;;;;;;39.88;15.90;;;5.50;99.90;;;;;;6228941;28;20053;-79
2023/02/05 12:31:21;;;;;;;23.13;14.13;;;5.50;99.90;;;;;;6229025;28;20049;-79
2023/02/05 12:34:30;;;;;;;28.80;15.45;;;5.50;99.90;;;;;;6228469;28;20052;-79
2023/02/05 12:37:42;;;;;;;33.55;18.02;;;5.50;99.90;;;;;;6226272;28;20045;-78
2023/02/05 12:40:55;;;;;;;23.27;15.13;;;5.50;99.90;;;;;;6222821;28;20417;-78
2023/02/05 12:44:11;;;;;;;33.90;17.20;;;5.40;99.90;;;;;;6228086;28;20050;-80
2023/02/05 12:47:32;;;;;;;30.17;15.73;;;5.40;99.90;;;;;;6226926;28;20052;-79
2023/02/05 12:50:53;;;;;;;26.20;16.05;;;5.40;99.90;;;;;;6225534;28;20049;-79
2023/02/05 12:54:13;;;;;;;33.22;15.43;;;5.40;99.90;;;;;;6229917;28;20370;-78
2023/02/05 12:57:18;;;;;;;67.43;35.60;;;5.30;99.90;;;;;;6222679;28;20042;-78
2023/02/05 13:00:24;;;;;;;31.27;17.42;;;5.40;99.90;;;;;;6224548;28;20053;-78
2023/02/05 13:03:29;;;;;;;33.13;19.13;;;5.40;99.90;;;;;;6224989;28;20517;-78
2023/02/05 13:06:33;;;;;;;27.85;17.00;;;5.40;99.90;;;;;;6224742;28;20517;-78
2023/02/05 13:09:44;;;;;;;41.55;17.42;;;5.40;99.90;;;;;;6226823;28;20054;-77
2023/02/05 13:12:50;;;;;;;31.83;16.52;;;5.50;99.90;;;;;;6225151;28;20052;-78
2023/02/05 13:16:02;;;;;;;26.27;17.17;;;5.50;99.90;;;;;;6226213;28;20050;-78
2023/02/05 13:19:13;;;;;;;27.75;17.10;;;5.50;99.90;;;;;;6224232;28;20501;-78
2023/02/05 13:29:08;;;;;;;34.80;17.75;;;5.50;99.90;;;;;;6223396;28;20042;-79
2023/02/05 13:32:16;;;;;;;35.70;18.75;;;5.60;99.90;;;;;;6223565;28;20054;-78
2023/02/05 13:35:19;;;;;;;39.58;19.20;;;5.60;99.90;;;;;;6222705;28;20575;-78
2023/02/05 13:38:39;;;;;;;41.92;17.17;;;5.50;99.90;;;;;;6223800;28;20045;-77
2023/02/05 13:42:13;;;;;;;31.25;18.48;;;5.60;99.90;;;;;;6223983;28;20049;-78
2023/02/05 13:45:32;;;;;;;39.72;17.92;;;5.60;99.90;;;;;;6225027;28;20053;-78
2023/02/05 13:49:04;;;;;;;36.08;16.55;;;5.60;99.90;;;;;;6224595;28;20053;-79
2023/02/05 13:52:24;;;;;;;36.80;16.42;;;5.60;99.90;;;;;;6213144;28;20050;-76
2023/02/05 13:55:47;;;;;;;39.60;17.75;;;5.70;99.90;;;;;;6236592;28;20073;-79
2023/02/05 13:58:52;;;;;;;35.20;18.90;;;5.70;99.90;;;;;;6209348;28;20054;-79
2023/02/05 14:01:59;;;;;;;37.90;18.23;;;5.60;99.90;;;;;;6208899;28;20050;-81
2023/02/05 14:05:01;;;;;;;33.13;18.55;;;5.60;99.90;;;;;;6208125;28;20043;-79
2023/02/05 14:08:06;;;;;;;44.15;22.92;;;5.70;99.90;;;;;;6208027;28;20049;-79
2023/02/05 14:11:09;;;;;;;165.20;85.88;;;5.70;99.90;;;;;;6208024;28;20050;-79
2023/02/05 14:14:33;;;;;;;38.47;21.83;;;5.80;99.90;;;;;;6209016;28;20050;-79
2023/02/05 14:17:55;;;;;;;40.88;19.48;;;5.80;99.90;;;;;;6209934;28;20039;-79
2023/02/05 14:20:56;;;;;;;35.45;18.52;;;5.80;99.90;;;;;;6209300;28;20054;-80
2023/02/05 14:24:00;;;;;;;39.42;20.52;;;5.80;99.90;;;;;;6216714;28;20050;-80
2023/02/05 14:27:02;;;;;;;34.65;19.35;;;5.80;99.90;;;;;;6233339;28;20089;-80
2023/02/05 14:30:40;;;;;;;38.65;19.42;;;5.90;99.90;;;;;;6233612;28;20046;-80
2023/02/05 14:33:44;;;;;;;34.65;17.58;;;5.90;99.90;;;;;;6232542;28;20053;-78
2023/02/05 14:36:54;;;;;;;41.33;19.77;;;5.90;99.90;;;;;;6231124;28;20053;-82
2023/02/05 14:39:57;;;;;;;35.40;19.27;;;5.90;99.90;;;;;;6234328;28;20501;-78
2023/02/05 14:43:12;;;;;;;36.85;19.80;;;6.00;99.90;;;;;;6232055;28;20129;-79
2023/02/05 14:46:29;;;;;;;34.42;21.27;;;5.90;99.90;;;;;;6236091;28;20036;-79
2023/02/05 14:49:41;;;;;;;37.25;20.73;;;6.00;99.90;;;;;;6232647;28;20056;-79
2023/02/05 14:52:49;;;;;;;38.88;20.10;;;5.90;99.90;;;;;;6230131;28;20050;-79
2023/02/05 14:55:55;;;;;;;43.30;25.77;;;5.90;99.90;;;;;;6231218;28;20060;-79
2023/02/05 14:59:03;;;;;;;36.45;22.40;;;6.00;99.90;;;;;;6219315;28;20449;-78
2023/02/05 15:02:51;;;;;;;43.13;20.77;;;6.10;99.90;;;;;;6228740;28;20069;-80
2023/02/05 15:05:58;;;;;;;43.47;21.00;;;6.00;99.90;;;;;;6229903;28;20140;-79
2023/02/05 15:09:08;;;;;;;39.83;21.90;;;6.10;99.90;;;;;;6227990;28;20543;-79
2023/02/05 15:12:31;;;;;;;40.38;21.67;;;6.10;99.90;;;;;;6225664;28;20082;-79
2023/02/05 15:15:35;;;;;;;39.47;24.83;;;6.10;99.90;;;;;;6217730;28;20119;-79
2023/02/05 15:18:41;;;;;;;30.88;20.27;;;6.20;99.90;;;;;;6210246;28;20060;-79
2023/02/05 15:21:50;;;;;;;37.15;20.05;;;6.10;99.90;;;;;;6225991;28;20085;-79
2023/02/05 15:24:54;;;;;;;33.38;20.08;;;6.10;99.90;;;;;;6227650;28;20046;-80
2023/02/05 15:28:01;;;;;;;35.53;19.98;;;6.10;99.90;;;;;;6228822;28;20065;-78
2023/02/05 15:31:22;;;;;;;32.05;20.17;;;6.10;99.90;;;;;;6227998;28;20136;-79
2023/02/05 15:34:33;;;;;;;36.10;21.88;;;6.10;99.90;;;;;;6228711;28;20420;-79
2023/02/05 15:37:44;;;;;;;37.50;21.67;;;6.20;99.90;;;;;;6219221;28;20117;-80
2023/02/05 15:40:46;;;;;;;42.72;26.40;;;6.20;99.90;;;;;;6228751;28;20056;-79
2023/02/05 15:43:59;;;;;;;38.40;21.52;;;6.20;99.90;;;;;;6228330;28;20060;-79
2023/02/05 15:47:04;;;;;;;36.15;21.83;;;6.30;99.90;;;;;;6228069;28;20046;-79
2023/02/05 15:50:14;;;;;;;38.17;21.23;;;6.30;99.90;;;;;;6228334;28;20199;-79
2023/02/05 15:53:30;;;;;;;35.55;23.30;;;6.30;99.90;;;;;;6206734;28;20057;-79
2023/02/05 15:56:36;;;;;;;47.67;23.88;;;6.40;99.90;;;;;;6214342;28;20054;-80
2023/02/05 15:59:39;;;;;;;38.75;22.33;;;6.30;99.90;;;;;;6225587;28;20480;-79
2023/02/05 16:02:53;;;;;;;40.42;25.00;;;6.30;99.90;;;;;;6227967;28;20145;-80
2023/02/05 16:05:55;;;;;;;39.13;24.38;;;6.30;99.90;;;;;;6228625;28;20072;-80
2023/02/05 16:08:58;;;;;;;46.70;25.23;;;6.30;99.90;;;;;;6227104;28;20053;-79
2023/02/05 16:12:18;;;;;;;45.08;25.58;;;6.30;99.90;;;;;;6227048;28;20100;-79
2023/02/05 16:15:20;;;;;;;44.55;24.38;;;6.30;99.90;;;;;;6230097;28;20144;-79
2023/02/05 16:18:33;;;;;;;41.13;24.85;;;6.30;99.90;;;;;;6225590;28;20041;-80
2023/02/05 16:21:49;;;;;;;38.20;22.27;;;6.30;99.90;;;;;;6226688;28;20398;-79
2023/02/05 16:25:00;;;;;;;39.60;23.17;;;6.30;99.90;;;;;;6224531;28;20115;-78